Time;durP1;ratioP1;P1;durP2;ratioP2;P2;SDS_P1;SDS_P2;PMS_P1;PMS_P2;Temp;Humidity;BMP_temperature;BMP_pressure;BME280_temperature;BME280_humidity;BME280_pressure;Samples;Min_cycle;Max_cycle;Signal;HPM_P1;HPM_P2
2022/05/03 00:02:13;;;;;;;4.82;3.58;;;;;;;10.08;79.73;101828.97;6404023;23;20028;-71
2022/05/03 00:05:13;;;;;;;4.25;3.42;;;;;;;10.04;79.58;101836.19;6403937;23;20329;-71
2022/05/03 00:08:03;;;;;;;5.00;3.70;;;;;;;10.15;78.43;101832.84;6361346;23;20460;-71
2022/05/03 00:10:58;;;;;;;5.65;3.90;;;;;;;10.13;78.62;101837.34;6403379;23;20007;-72
2022/05/03 00:13:43;;;;;;;5.47;3.67;;;;;;;10.02;79.67;101830.22;6404035;23;20052;-72
2022/05/03 00:16:16;;;;;;;3.97;3.58;;;;;;;9.91;80.24;101828.28;6404097;23;20005;-74
2022/05/03 00:18:47;;;;;;;4.88;3.70;;;;;;;9.79;80.47;101815.19;6377721;23;20041;-74
2022/05/03 00:21:19;;;;;;;5.53;3.70;;;;;;;9.77;81.12;101823.13;6404175;23;20009;-75
2022/05/03 00:23:50;;;;;;;4.70;3.95;;;;;;;9.80;80.61;101820.31;6404010;23;20002;-73
2022/05/03 00:26:22;;;;;;;5.78;4.25;;;;;;;9.71;80.54;101824.38;6404631;23;20108;-71
2022/05/03 00:28:56;;;;;;;4.57;3.60;;;;;;;9.71;81.49;101821.78;6406283;23;20036;-71
2022/05/03 00:31:28;;;;;;;;;;;;;;;10.21;76.01;101820.16;6406667;23;20009;-71
2022/05/03 00:34:00;;;;;;;5.18;3.97;;;;;;;9.61;81.37;101818.06;6406098;23;19955;-74
2022/05/03 00:36:32;;;;;;;5.20;4.00;;;;;;;9.63;81.18;101810.13;6406669;23;20009;-71
2022/05/03 00:39:03;;;;;;;6.05;4.05;;;;;;;9.54;81.43;101813.34;6405405;23;20580;-71
2022/05/03 00:41:41;;;;;;;5.20;3.90;;;;;;;9.71;81.01;101815.69;6406327;23;20395;-72
2022/05/03 00:44:56;;;;;;;4.45;3.97;;;;;;;9.75;80.19;101817.16;6405367;23;20045;-74
2022/05/03 00:48:04;;;;;;;6.57;4.20;;;;;;;9.63;80.71;101812.75;6405774;23;20019;-71
2022/05/03 00:50:59;;;;;;;5.13;4.30;;;;;;;9.35;81.67;101811.91;6406157;23;20008;-73
2022/05/03 00:53:33;;;;;;;5.40;3.97;;;;;;;9.30;83.09;101816.59;6390148;23;20353;-71
2022/05/03 00:56:20;;;;;;;6.03;3.90;;;;;;;9.18;82.27;101823.44;6404844;23;20008;-71
2022/05/03 00:59:09;;;;;;;5.82;3.97;;;;;;;9.30;81.76;101827.06;6406242;23;20092;-70
2022/05/03 01:02:04;;;;;;;4.40;3.53;;;;;;;9.42;80.48;101825.44;6406248;23;20497;-70
2022/05/03 01:04:36;;;;;;;4.90;4.32;;;;;;;9.09;82.69;101824.03;6405089;23;20012;-70
2022/05/03 01:07:28;;;;;;;6.10;4.63;;;;;;;9.20;81.64;101815.50;6406624;23;20124;-70
2022/05/03 01:10:15;;;;;;;6.78;4.20;;;;;;;9.10;83.35;101820.47;6406393;23;20001;-72
2022/05/03 01:12:57;;;;;;;4.97;4.03;;;;;;;9.08;83.96;101821.50;6406061;23;20029;-70
2022/05/03 01:15:37;;;;;;;5.63;4.30;;;;;;;8.94;84.65;101820.59;6404845;23;20005;-70
2022/05/03 01:18:15;;;;;;;5.78;4.15;;;;;;;8.86;85.32;101817.59;6406424;23;20005;-69
2022/05/03 01:21:23;;;;;;;5.38;3.80;;;;;;;9.01;83.31;101811.41;6405988;23;20425;-70
2022/05/03 01:24:00;;;;;;;5.65;4.40;;;;;;;8.79;85.05;101808.50;6401442;23;20437;-72
2022/05/03 01:27:00;;;;;;;5.65;3.95;;;;;;;8.74;86.45;101807.91;6406300;23;20013;-72
2022/05/03 01:29:33;;;;;;;7.22;4.60;;;;;;;8.59;86.80;101812.31;6405950;23;20001;-71
2022/05/03 01:32:09;;;;;;;6.75;4.90;;;;;;;8.64;85.68;101806.81;6405549;23;20009;-70
2022/05/03 01:34:45;;;;;;;5.47;4.60;;;;;;;8.51;85.85;101811.94;6406095;23;19998;-69
2022/05/03 01:37:46;;;;;;;8.20;5.00;;;;;;;8.72;86.21;101812.41;6405844;23;20426;-70
2022/05/03 01:40:26;;;;;;;6.65;4.20;;;;;;;8.61;86.26;101807.84;6404774;23;20010;-70
2022/05/03 01:42:57;;;;;;;6.65;4.38;;;;;;;8.40;86.60;101803.91;6404960;23;20006;-74
2022/05/03 01:45:32;;;;;;;7.03;4.50;;;;;;;8.37;86.43;101809.28;6403847;23;20404;-72
2022/05/03 01:48:10;;;;;;;5.60;4.32;;;;;;;8.47;86.27;101805.22;6405840;23;20005;-70
2022/05/03 01:50:45;;;;;;;5.85;4.70;;;;;;;8.30;88.22;101811.44;6406150;23;20032;-70
2022/05/03 01:53:29;;;;;;;5.78;4.57;;;;;;;8.34;87.69;101806.88;6405569;23;20009;-70
2022/05/03 01:56:19;;;;;;;5.72;4.63;;;;;;;8.38;88.01;101804.00;6404108;23;20073;-71
2022/05/03 01:58:59;;;;;;;6.85;4.25;;;;;;;8.30;89.29;101803.59;6405285;23;20037;-71
2022/05/03 02:01:59;;;;;;;5.50;4.28;;;;;;;8.39;88.33;101799.63;6404008;23;20068;-73
2022/05/03 02:04:55;;;;;;;6.25;4.40;;;;;;;8.27;88.51;101799.41;6404304;23;20010;-71
2022/05/03 02:07:26;;;;;;;5.60;4.55;;;;;;;8.11;89.12;101801.25;6404344;23;20385;-70
2022/05/03 02:10:17;;;;;;;5.20;4.70;;;;;;;8.24;89.58;101806.56;6404975;23;20058;-72
2022/05/03 02:13:03;;;;;;;5.78;4.45;;;;;;;8.18;89.02;101806.94;6404329;23;20241;-69
2022/05/03 02:15:44;;;;;;;9.80;4.47;;;;;;;8.12;89.38;101797.69;6404313;23;20005;-70
2022/05/03 02:18:26;;;;;;;7.43;4.78;;;;;;;8.11;90.14;101801.25;6405272;23;20005;-70
2022/05/03 02:21:17;;;;;;;7.03;4.20;;;;;;;8.03;89.60;101796.50;6379242;23;20043;-73
2022/05/03 02:24:19;;;;;;;6.38;4.25;;;;;;;8.23;87.25;101784.84;6377674;23;20438;-70
2022/05/03 02:27:07;;;;;;;5.78;4.82;;;;;;;8.06;89.71;101800.66;6405241;23;20014;-70
2022/05/03 02:29:48;;;;;;;5.93;4.57;;;;;;;7.93;89.95;101789.28;6405638;23;20080;-70
2022/05/03 02:32:47;;;;;;;6.32;4.40;;;;;;;8.12;88.19;101802.91;6404459;23;20409;-72
2022/05/03 02:35:24;;;;;;;6.30;4.47;;;;;;;7.86;89.70;101795.78;6404585;23;20021;-74
2022/05/03 02:38:02;;;;;;;5.82;4.45;;;;;;;7.80;90.21;101799.56;6405310;23;20108;-70
2022/05/03 02:40:44;;;;;;;6.95;4.75;;;;;;;7.82;88.89;101797.72;6404870;23;20037;-70
2022/05/03 02:43:17;;;;;;;7.88;4.28;;;;;;;7.72;89.39;101799.19;6378747;23;20024;-69
2022/05/03 02:46:13;;;;;;;6.78;4.07;;;;;;;7.87;88.37;101792.25;6403400;23;20345;-70
2022/05/03 02:49:06;;;;;;;6.35;4.38;;;;;;;7.85;89.15;101796.72;6404872;23;20013;-72
2022/05/03 02:52:01;;;;;;;7.57;4.72;;;;;;;7.87;88.15;101805.28;6404594;23;20015;-70
2022/05/03 02:54:43;;;;;;;7.03;4.45;;;;;;;7.74;89.08;101798.16;6362203;23;20017;-70
2022/05/03 02:57:39;;;;;;;8.38;5.03;;;;;;;7.73;89.57;101806.09;6404596;23;20012;-69
2022/05/03 03:03:27;;;;;;;7.03;4.45;;;;;;;7.66;89.43;101807.38;6405517;23;20013;-70
2022/05/03 03:06:00;;;;;;;4.88;4.38;;;;;;;7.51;90.24;101806.47;6404785;23;20088;-70
2022/05/03 03:08:43;;;;;;;;;;;;;;;8.01;84.76;101793.13;6405467;23;20005;-70
2022/05/03 03:11:40;;;;;;;5.03;4.30;;;;;;;7.61;88.88;101804.16;6404821;23;19916;-69
2022/05/03 03:14:26;;;;;;;5.05;3.92;;;;;;;7.56;89.91;101794.84;6404786;23;20461;-74
2022/05/03 03:17:09;;;;;;;6.82;4.60;;;;;;;7.48;90.42;101799.66;6404162;23;20020;-70
2022/05/03 03:19:59;;;;;;;5.57;4.40;;;;;;;7.55;89.56;101800.16;6405050;23;20020;-69
2022/05/03 03:22:36;;;;;;;6.88;4.03;;;;;;;7.24;91.55;101803.66;6405040;23;20044;-70
2022/05/03 03:25:13;;;;;;;6.20;4.60;;;;;;;7.25;92.28;101800.09;6404528;23;20072;-70
2022/05/03 03:27:47;;;;;;;8.10;4.78;;;;;;;7.16;93.07;101796.25;6404482;23;20429;-71
2022/05/03 03:30:20;;;;;;;5.45;4.50;;;;;;;7.24;91.82;101796.66;6404504;23;20013;-73
2022/05/03 03:32:53;;;;;;;5.47;4.63;;;;;;;7.17;92.99;101797.09;6403505;23;20353;-70
2022/05/03 03:35:25;;;;;;;;;;;;;;;7.72;86.86;101802.63;6404257;23;20060;-70
2022/05/03 03:38:01;;;;;;;5.40;4.10;;;;;;;7.25;91.40;101803.56;6378720;23;20249;-70
2022/05/03 03:40:32;;;;;;;5.50;4.30;;;;;;;7.09;91.56;101801.88;6403971;23;20005;-71
2022/05/03 03:43:04;;;;;;;6.95;4.50;;;;;;;7.07;91.66;101789.75;6403046;23;20005;-69
2022/05/03 03:45:35;;;;;;;7.68;4.78;;;;;;;7.03;92.59;101800.44;6404533;23;20417;-70
2022/05/03 03:48:08;;;;;;;7.55;4.20;;;;;;;6.99;93.15;101791.94;6404121;23;20009;-69
2022/05/03 03:50:43;;;;;;;5.93;4.72;;;;;;;7.01;93.11;101789.28;6404477;23;20088;-72
2022/05/03 03:53:15;;;;;;;5.30;4.40;;;;;;;6.88;93.46;101790.84;6404272;23;20040;-73
2022/05/03 03:55:48;;;;;;;6.50;4.55;;;;;;;6.87;94.02;101792.63;6403933;23;19998;-69
2022/05/03 03:58:19;;;;;;;6.97;4.70;;;;;;;6.86;94.28;101793.56;6404483;23;20017;-71
2022/05/03 04:00:51;;;;;;;5.63;4.05;;;;;;;6.87;93.74;101791.78;6402508;23;20251;-70
2022/05/03 04:03:23;;;;;;;6.28;4.63;;;;;;;6.85;94.91;101791.00;6403740;23;20006;-72
2022/05/03 04:05:55;;;;;;;5.53;4.38;;;;;;;6.83;94.12;101801.53;6376034;23;20005;-70
2022/05/03 04:08:26;;;;;;;6.75;4.28;;;;;;;6.82;94.50;101789.44;6403657;23;20426;-70
2022/05/03 04:10:57;;;;;;;5.88;4.63;;;;;;;6.78;95.03;101791.38;6377395;23;20013;-70
2022/05/03 04:13:29;;;;;;;6.32;5.00;;;;;;;6.77;94.45;101788.81;6404529;23;20040;-75
2022/05/03 04:16:02;;;;;;;9.93;4.60;;;;;;;6.73;94.37;101790.75;6403891;23;20002;-72
2022/05/03 04:18:44;;;;;;;7.30;4.72;;;;;;;6.75;94.83;101794.13;6403543;23;20076;-74
2022/05/03 04:21:17;;;;;;;5.72;4.68;;;;;;;6.77;94.89;101796.63;6404656;23;20455;-70
2022/05/03 04:23:48;;;;;;;;;;;;;;;7.27;89.25;101795.63;6404605;23;20016;-70
2022/05/03 04:26:20;;;;;;;5.07;4.53;;;;;;;6.72;95.35;101804.69;6404362;23;20252;-70
2022/05/03 04:28:56;;;;;;;6.30;4.95;;;;;;;6.75;95.28;101796.72;6404622;23;20009;-70
2022/05/03 04:31:28;;;;;;;7.07;5.10;;;;;;;6.70;96.12;101803.09;6403656;23;20013;-70
2022/05/03 04:34:03;;;;;;;9.48;5.55;;;;;;;6.73;97.11;101800.31;6404023;23;20006;-70
2022/05/03 04:36:35;;;;;;;11.48;5.65;;;;;;;6.70;97.34;101800.47;6404492;23;20080;-70
2022/05/03 04:39:06;;;;;;;6.43;5.38;;;;;;;6.70;97.88;101803.09;6403956;23;20005;-70
2022/05/03 04:41:38;;;;;;;8.88;5.15;;;;;;;6.74;97.37;101794.19;6403230;23;20061;-74
2022/05/03 04:44:09;;;;;;;6.43;5.15;;;;;;;6.72;97.55;101803.88;6403614;23;20009;-71
2022/05/03 04:46:40;;;;;;;5.95;5.35;;;;;;;6.72;97.79;101802.09;6404112;23;20594;-74
2022/05/03 04:49:12;;;;;;;8.40;5.88;;;;;;;6.78;98.25;101807.00;6404333;23;20010;-70
2022/05/03 04:51:43;;;;;;;6.30;4.75;;;;;;;6.83;98.34;101811.94;6402318;23;20017;-69
2022/05/03 04:54:14;;;;;;;7.90;5.47;;;;;;;6.82;99.24;101812.88;6403879;23;20002;-70
2022/05/03 04:56:50;;;;;;;7.53;5.47;;;;;;;6.89;99.55;101810.75;6403939;23;20113;-72
2022/05/03 04:59:21;;;;;;;7.85;5.18;;;;;;;6.92;99.43;101815.81;6403939;23;20024;-74
2022/05/03 05:01:52;;;;;;;10.25;6.20;;;;;;;6.89;99.47;101809.00;6404326;23;20013;-70
2022/05/03 05:04:24;;;;;;;8.13;6.05;;;;;;;6.86;100.00;101809.19;6403526;23;20008;-72
2022/05/03 05:06:55;;;;;;;7.15;5.80;;;;;;;6.97;99.51;101814.66;6404274;23;20020;-70
2022/05/03 05:09:27;;;;;;;11.35;5.82;;;;;;;7.07;100.00;101820.19;6377694;23;20044;-72
2022/05/03 05:11:58;;;;;;;8.90;5.75;;;;;;;7.12;100.00;101819.94;6403838;23;20352;-72
2022/05/03 05:14:29;;;;;;;7.38;6.03;;;;;;;7.13;100.00;101824.25;6405870;23;20004;-70
2022/05/03 05:17:00;;;;;;;8.60;5.95;;;;;;;7.26;100.00;101823.47;6404679;23;20450;-72
2022/05/03 05:19:32;;;;;;;9.15;6.13;;;;;;;7.35;98.64;101824.75;6404118;23;20077;-70
2022/05/03 05:22:03;;;;;;;7.95;5.68;;;;;;;7.36;98.23;101829.03;6405225;23;20100;-71
2022/05/03 05:24:34;;;;;;;7.63;6.10;;;;;;;7.50;97.99;101833.44;6406121;23;20334;-74
2022/05/03 05:27:06;;;;;;;12.70;6.13;;;;;;;7.51;98.05;101829.94;6405101;23;20016;-69
2022/05/03 05:29:37;;;;;;;9.82;6.38;;;;;;;7.53;98.11;101835.88;6379542;23;20410;-73
2022/05/03 05:32:09;;;;;;;8.77;6.53;;;;;;;7.57;96.99;101833.03;6402715;23;20063;-71
2022/05/03 05:34:40;;;;;;;7.43;6.00;;;;;;;7.62;96.98;101834.56;6405685;23;20020;-75
2022/05/03 05:37:11;;;;;;;9.18;6.07;;;;;;;7.73;96.64;101847.84;6404524;23;20006;-71
2022/05/03 05:39:44;;;;;;;8.00;6.13;;;;;;;7.79;97.25;101850.91;6404249;23;20092;-72
2022/05/03 05:42:15;;;;;;;10.87;6.77;;;;;;;7.79;98.69;101845.69;6376564;23;20036;-72
2022/05/03 05:44:46;;;;;;;8.75;6.18;;;;;;;7.84;97.71;101850.66;6404044;23;20045;-71
2022/05/03 05:47:18;;;;;;;11.48;6.55;;;;;;;7.89;98.22;101846.03;6403734;23;20009;-74
2022/05/03 05:49:49;;;;;;;9.55;6.38;;;;;;;7.96;98.72;101857.78;6404707;23;20009;-71
2022/05/03 05:55:10;;;;;;;9.88;6.45;;;;;;;8.07;98.57;101849.34;6402618;23;20009;-71
2022/05/03 05:57:42;;;;;;;9.23;6.50;;;;;;;8.12;99.08;101854.28;6404258;23;20080;-74
2022/05/03 06:00:14;;;;;;;10.23;6.15;;;;;;;8.16;99.43;101854.00;6404921;23;20009;-71
2022/05/03 06:02:46;;;;;;;8.75;6.20;;;;;;;8.25;99.69;101856.06;6404415;23;20365;-71
2022/05/03 06:05:17;;;;;;;10.85;6.88;;;;;;;8.33;97.73;101854.78;6404918;23;20009;-74
2022/05/03 06:07:49;;;;;;;8.45;6.47;;;;;;;8.40;98.08;101853.53;6405434;23;20005;-71
2022/05/03 06:10:20;;;;;;;8.45;6.43;;;;;;;8.39;96.70;101850.06;6403216;23;20088;-75
2022/05/03 06:12:53;;;;;;;10.18;6.32;;;;;;;8.51;97.63;101854.56;6402853;23;20006;-71
2022/05/03 06:15:24;;;;;;;8.75;5.82;;;;;;;8.59;95.15;101851.47;6403525;23;20009;-71
2022/05/03 06:17:55;;;;;;;8.88;6.18;;;;;;;8.68;93.06;101855.34;6404897;23;20463;-71
2022/05/03 06:20:27;;;;;;;8.73;6.45;;;;;;;8.83;92.37;101859.63;6404227;23;20024;-74
2022/05/03 06:22:58;;;;;;;9.02;5.78;;;;;;;8.91;90.87;101857.38;6404758;23;20456;-72
2022/05/03 06:25:30;;;;;;;7.07;6.13;;;;;;;9.13;89.62;101858.63;6403354;23;20006;-71
2022/05/03 06:28:01;;;;;;;6.97;5.78;;;;;;;9.20;87.32;101857.31;6405309;23;20398;-73
2022/05/03 06:30:32;;;;;;;6.97;5.53;;;;;;;9.35;85.02;101866.81;6405583;23;20035;-71
2022/05/03 06:33:05;;;;;;;7.95;5.68;;;;;;;9.48;84.00;101862.50;6403957;23;20057;-72
2022/05/03 06:35:36;;;;;;;8.77;5.70;;;;;;;9.58;82.68;101860.13;6404624;23;20001;-73
2022/05/03 06:38:08;;;;;;;7.45;5.53;;;;;;;9.76;82.36;101860.72;6403612;23;20156;-71
2022/05/03 06:40:39;;;;;;;7.43;5.47;;;;;;;9.90;81.85;101851.97;6404756;23;20009;-71
2022/05/03 06:43:10;;;;;;;6.03;5.43;;;;;;;9.97;79.35;101848.84;6397645;23;20421;-71
2022/05/03 06:45:41;;;;;;;7.30;5.07;;;;;;;10.06;78.97;101847.38;6403078;23;20389;-74
2022/05/03 06:48:14;;;;;;;7.30;4.97;;;;;;;10.34;75.66;101862.13;6403042;23;20408;-73
2022/05/03 06:50:45;;;;;;;7.00;4.30;;;;;;;10.47;73.74;101849.88;6376447;23;20009;-74
2022/05/03 06:53:17;;;;;;;7.80;4.13;;;;;;;10.63;68.83;101859.28;6403309;23;20012;-71
2022/05/03 06:55:48;;;;;;;5.72;4.43;;;;;;;10.88;70.53;101861.06;6403542;23;20403;-75
2022/05/03 06:58:19;;;;;;;7.30;4.53;;;;;;;11.06;70.31;101858.91;6403588;23;20353;-73
2022/05/03 07:00:51;;;;;;;4.03;3.42;;;;;;;11.09;64.29;101858.72;6403434;23;20410;-72
2022/05/03 07:03:22;;;;;;;5.38;3.75;;;;;;;11.31;67.22;101858.84;6404526;23;20084;-74
2022/05/03 07:05:54;;;;;;;5.95;3.05;;;;;;;11.38;61.89;101864.50;6403558;23;20005;-71
2022/05/03 07:08:25;;;;;;;5.53;2.97;;;;;;;11.59;58.56;101864.72;6404467;23;20108;-72
2022/05/03 07:10:57;;;;;;;7.05;3.53;;;;;;;11.69;56.18;101858.69;6403520;23;20529;-74
2022/05/03 07:13:28;;;;;;;4.40;3.45;;;;;;;11.80;55.98;101865.78;6403601;23;20005;-72
2022/05/03 07:16:00;;;;;;;4.30;3.28;;;;;;;12.04;55.67;101865.78;6403875;23;20520;-72
2022/05/03 07:24:24;;;;;;;3.72;2.92;;;;;;;12.59;51.59;101868.66;6337737;23;20250;-73
2022/05/03 07:26:55;;;;;;;4.55;2.67;;;;;;;12.66;48.77;101868.06;6403925;23;20009;-72
2022/05/03 07:29:27;;;;;;;4.93;2.60;;;;;;;12.82;47.27;101875.59;6404667;23;20005;-72
2022/05/03 07:31:58;;;;;;;3.42;2.50;;;;;;;12.99;46.77;101871.63;6403016;23;20013;-78
2022/05/03 07:34:29;;;;;;;3.40;2.63;;;;;;;13.05;46.00;101878.22;6402660;23;20005;-76
2022/05/03 07:37:01;;;;;;;2.80;1.95;;;;;;;13.22;44.31;101876.88;6373131;23;20321;-73
2022/05/03 07:39:32;;;;;;;4.60;2.63;;;;;;;13.34;45.48;101879.41;6402147;23;20009;-74
2022/05/03 07:42:04;;;;;;;2.70;2.03;;;;;;;13.49;43.00;101879.97;6374483;23;20005;-77
2022/05/03 07:44:35;;;;;;;4.18;1.98;;;;;;;13.53;41.78;101870.88;6396674;23;20045;-73
2022/05/03 07:47:07;;;;;;;2.55;2.17;;;;;;;13.61;41.72;101872.88;6403500;23;20100;-72
2022/05/03 07:49:38;;;;;;;3.35;2.10;;;;;;;13.73;42.61;101879.78;6403914;23;20139;-75
2022/05/03 07:52:09;;;;;;;3.58;2.13;;;;;;;13.87;41.35;101876.84;6403443;23;20465;-78
2022/05/03 07:54:42;;;;;;;3.80;2.35;;;;;;;14.03;39.93;101871.16;6377549;23;20329;-73
2022/05/03 07:57:13;;;;;;;4.68;2.78;;;;;;;14.22;41.82;101864.34;6402158;23;20076;-75
2022/05/03 07:59:45;;;;;;;3.03;2.53;;;;;;;14.25;41.60;101872.84;6403882;23;20006;-73
2022/05/03 08:02:16;;;;;;;4.10;3.10;;;;;;;14.38;40.94;101872.63;6404400;23;20036;-74
2022/05/03 08:04:49;;;;;;;4.68;2.88;;;;;;;14.58;41.61;101870.97;6377593;23;20017;-73
2022/05/03 08:07:21;;;;;;;5.70;2.72;;;;;;;14.81;43.18;101867.19;6403729;23;20012;-73
2022/05/03 08:09:53;;;;;;;4.90;2.95;;;;;;;15.00;42.03;101868.22;6402265;23;20013;-75
2022/05/03 08:12:25;;;;;;;3.80;2.80;;;;;;;15.12;41.71;101871.63;6403023;23;20044;-73
2022/05/03 08:14:56;;;;;;;4.05;3.25;;;;;;;15.24;41.91;101866.06;6376045;23;19997;-73
2022/05/03 08:17:28;;;;;;;3.33;2.70;;;;;;;15.28;41.00;101872.75;6402864;23;20013;-77
2022/05/03 08:19:59;;;;;;;3.35;2.75;;;;;;;15.43;40.44;101869.72;6403567;23;20390;-76
2022/05/03 08:22:33;;;;;;;4.95;3.30;;;;;;;15.64;40.53;101873.06;6404337;23;20041;-77
2022/05/03 08:25:05;;;;;;;5.63;3.38;;;;;;;15.75;40.54;101869.50;6402453;23;20144;-73
2022/05/03 08:27:38;;;;;;;4.63;3.40;;;;;;;15.86;41.16;101879.94;6403938;23;20423;-75
2022/05/03 08:30:10;;;;;;;5.72;3.58;;;;;;;16.05;42.67;101876.44;6403313;23;20092;-76
2022/05/03 08:32:41;;;;;;;4.90;3.20;;;;;;;16.03;40.05;101884.53;6402849;23;20468;-73
2022/05/03 08:35:14;;;;;;;4.97;3.30;;;;;;;16.22;41.64;101883.66;6377743;23;20080;-73
2022/05/03 08:43:26;;;;;;;6.70;4.43;;;;;;;16.44;41.06;101882.53;6404100;23;20017;-75
2022/05/03 08:46:01;;;;;;;10.27;4.30;;;;;;;16.56;41.67;101883.19;6402999;23;20013;-73
2022/05/03 08:48:37;;;;;;;9.00;4.28;;;;;;;16.57;41.24;101876.06;6403705;23;20072;-78
2022/05/03 08:51:19;;;;;;;7.47;4.78;;;;;;;16.70;41.99;101882.69;6404903;23;20009;-76
2022/05/03 08:53:51;;;;;;;5.10;4.10;;;;;;;16.75;42.00;101879.66;6377845;23;20005;-76
2022/05/03 08:56:22;;;;;;;5.18;4.55;;;;;;;16.92;40.26;101884.19;6406212;23;20010;-76
2022/05/03 08:58:54;;;;;;;5.70;4.45;;;;;;;17.08;41.54;101877.41;6405411;23;20092;-74
2022/05/03 09:01:25;;;;;;;6.65;4.30;;;;;;;17.23;40.36;101863.53;6404768;23;20345;-74
2022/05/03 09:03:57;;;;;;;7.82;4.63;;;;;;;17.38;41.37;101882.38;6405350;23;20005;-73
2022/05/03 09:06:46;;;;;;;6.30;4.65;;;;;;;17.78;41.35;101883.00;6378320;23;20048;-73
2022/05/03 09:09:20;;;;;;;7.38;5.07;;;;;;;17.60;40.45;101872.34;6404488;23;20360;-76
2022/05/03 09:11:57;;;;;;;5.50;4.95;;;;;;;17.70;41.67;101875.78;6404985;23;20002;-76
2022/05/03 09:14:40;;;;;;;6.25;5.05;;;;;;;17.92;41.81;101880.63;6404735;23;20386;-74
2022/05/03 09:17:11;;;;;;;7.15;4.75;;;;;;;17.95;40.61;101869.69;6404130;23;20013;-73
2022/05/03 09:19:43;;;;;;;6.68;4.90;;;;;;;17.99;42.11;101878.19;6406005;23;20001;-74
2022/05/03 09:25:13;;;;;;;7.70;5.32;;;;;;;18.13;42.71;101879.47;6404372;23;20017;-76
2022/05/03 09:27:44;;;;;;;8.02;4.95;;;;;;;18.07;42.43;101874.75;6405098;23;20012;-76
2022/05/03 09:30:15;;;;;;;7.53;5.88;;;;;;;18.12;41.38;101875.16;6405932;23;20458;-75
2022/05/03 09:32:52;;;;;;;5.97;5.13;;;;;;;18.36;42.30;101872.66;6406024;23;20063;-74
2022/05/03 09:35:34;;;;;;;6.38;4.65;;;;;;;18.48;42.58;101867.91;6401790;23;19998;-74
2022/05/03 09:38:05;;;;;;;7.50;5.07;;;;;;;18.55;41.76;101874.25;6405140;23;20008;-74
2022/05/03 09:40:41;;;;;;;5.95;5.10;;;;;;;18.58;41.78;101881.09;6406009;23;20489;-76
2022/05/03 09:43:13;;;;;;;6.90;4.93;;;;;;;18.59;41.30;101878.28;6405108;23;20017;-73
2022/05/03 09:45:45;;;;;;;7.68;5.50;;;;;;;18.61;41.11;101873.66;6403728;23;20079;-73
2022/05/03 09:48:16;;;;;;;7.28;5.32;;;;;;;18.62;40.86;101870.00;6404939;23;20269;-75
2022/05/03 09:50:48;;;;;;;6.90;4.95;;;;;;;18.85;43.00;101866.81;6404809;23;20007;-74
2022/05/03 09:53:22;;;;;;;6.68;5.75;;;;;;;18.99;43.61;101868.88;6405315;23;20458;-78
2022/05/03 09:55:53;;;;;;;7.03;5.50;;;;;;;19.11;42.27;101872.91;6403709;23;20060;-74
2022/05/03 09:58:27;;;;;;;7.93;5.05;;;;;;;19.20;41.09;101871.91;6405399;23;20345;-74
2022/05/03 10:00:59;;;;;;;6.10;5.43;;;;;;;19.21;41.82;101870.13;6403982;23;20321;-74
2022/05/03 10:03:31;;;;;;;5.32;4.82;;;;;;;19.31;41.39;101862.00;6404456;23;20005;-74
2022/05/03 10:06:02;;;;;;;7.40;5.90;;;;;;;19.52;42.14;101858.88;6401669;23;20005;-74
2022/05/03 10:08:34;;;;;;;6.47;5.53;;;;;;;19.45;40.53;101864.03;6403016;23;20048;-76
2022/05/03 10:11:05;;;;;;;7.23;5.30;;;;;;;19.52;40.63;101865.03;6403920;23;20005;-74
2022/05/03 10:13:37;;;;;;;5.67;5.07;;;;;;;19.69;40.51;101858.75;6405652;23;20001;-74
2022/05/03 10:21:57;;;;;;;6.10;5.10;;;;;;;19.53;39.88;101864.03;6404805;23;20045;-78
2022/05/03 10:24:29;;;;;;;6.88;4.93;;;;;;;19.56;39.58;101861.03;6404455;23;20340;-76
2022/05/03 10:27:02;;;;;;;4.93;4.43;;;;;;;19.79;41.04;101865.75;6403723;23;20009;-75
2022/05/03 10:29:36;;;;;;;5.97;4.10;;;;;;;19.80;40.64;101846.97;6404853;23;20012;-74
2022/05/03 10:32:07;;;;;;;6.30;4.65;;;;;;;19.83;40.13;101854.59;6403801;23;20072;-76
2022/05/03 10:34:59;;;;;;;5.00;4.50;;;;;;;20.19;40.50;101851.56;6402681;23;20025;-76
2022/05/03 10:37:33;;;;;;;6.25;5.07;;;;;;;20.07;40.01;101850.28;6401875;23;20307;-77
2022/05/03 10:40:14;;;;;;;6.00;5.40;;;;;;;20.12;39.98;101846.13;6402494;23;20040;-75
2022/05/03 10:43:10;;;;;;;7.20;5.07;;;;;;;20.47;39.61;101844.03;6404077;23;20068;-76
2022/05/03 10:45:56;;;;;;;5.65;4.97;;;;;;;20.60;39.09;101836.38;6403836;23;20017;-74
2022/05/03 10:48:29;;;;;;;6.18;4.60;;;;;;;20.41;38.81;101845.53;6378718;23;20068;-75
2022/05/03 10:51:03;;;;;;;7.80;4.45;;;;;;;20.01;39.64;101835.00;6378168;23;20009;-73
2022/05/03 10:53:37;;;;;;;6.90;5.28;;;;;;;19.66;39.71;101845.81;6395057;23;20009;-74
2022/05/03 10:56:18;;;;;;;7.10;5.68;;;;;;;19.77;40.83;101839.31;6396686;23;20010;-75
2022/05/03 10:59:14;;;;;;;9.00;5.10;;;;;;;20.24;40.80;101833.28;6403837;23;20493;-76
2022/05/03 11:02:06;;;;;;;9.13;5.18;;;;;;;20.10;40.15;101842.78;6401396;23;20005;-74
2022/05/03 11:05:14;;;;;;;4.85;4.35;;;;;;;19.83;40.60;101830.69;6402420;23;20009;-76
2022/05/03 11:08:15;;;;;;;6.60;4.25;;;;;;;19.65;40.80;101830.00;6402246;23;20009;-73
2022/05/03 11:10:46;;;;;;;6.30;4.22;;;;;;;19.58;41.35;101829.81;6395151;23;20077;-77
2022/05/03 11:13:37;;;;;;;5.83;4.27;;;;;;;20.04;40.75;101822.19;6400945;23;20469;-74
2022/05/03 11:16:20;;;;;;;5.43;4.18;;;;;;;20.05;40.14;101815.03;6402262;23;20017;-75
2022/05/03 11:18:55;;;;;;;5.03;4.50;;;;;;;20.34;40.77;101811.78;6401836;23;20057;-74
2022/05/03 11:21:26;;;;;;;6.32;5.28;;;;;;;20.28;39.74;101813.31;6402718;23;20293;-77
2022/05/03 11:23:57;;;;;;;6.10;4.13;;;;;;;20.58;38.44;101811.75;6402952;23;20002;-74
2022/05/03 11:26:29;;;;;;;7.20;5.37;;;;;;;20.77;37.93;101812.34;6402420;23;20006;-74
2022/05/03 11:29:02;;;;;;;6.20;4.97;;;;;;;20.93;38.30;101809.59;6403124;23;20057;-74
2022/05/03 11:31:34;;;;;;;4.78;4.10;;;;;;;20.81;38.82;101811.84;6403604;23;20038;-76
2022/05/03 11:34:06;;;;;;;5.83;4.50;;;;;;;21.11;38.81;101801.34;6402345;23;20280;-76
2022/05/03 11:36:40;;;;;;;6.78;4.93;;;;;;;20.98;37.83;101804.56;6403629;23;20429;-74
2022/05/03 11:39:12;;;;;;;5.97;4.78;;;;;;;21.01;38.37;101806.88;6401842;23;20005;-77
2022/05/03 11:41:45;;;;;;;5.80;5.00;;;;;;;20.99;37.50;101794.78;6403892;23;20400;-74
2022/05/03 11:44:16;;;;;;;4.70;4.03;;;;;;;20.94;38.05;101797.09;6401731;23;20030;-74
2022/05/03 11:46:49;;;;;;;5.53;3.33;;;;;;;20.95;37.15;101796.94;6400960;23;20481;-77
2022/05/03 11:49:21;;;;;;;3.75;3.38;;;;;;;20.80;37.04;101802.19;6402734;23;20084;-75
2022/05/03 11:57:42;;;;;;;7.25;5.25;;;;;;;20.73;39.31;101792.41;6402985;23;20021;-76
2022/05/03 12:00:14;;;;;;;6.82;5.57;;;;;;;20.80;39.34;101780.88;6403271;23;20144;-74
2022/05/03 12:02:45;;;;;;;6.90;5.32;;;;;;;20.85;38.25;101786.50;6403420;23;20017;-74
2022/05/03 12:05:19;;;;;;;6.67;5.17;;;;;;;20.52;39.06;101788.47;6403134;23;20006;-74
2022/05/03 12:07:57;;;;;;;5.65;4.57;;;;;;;20.65;40.01;101779.97;6402821;23;20014;-75
2022/05/03 12:10:30;;;;;;;4.32;3.92;;;;;;;20.56;38.73;101765.84;6402851;23;20582;-76
2022/05/03 12:13:19;;;;;;;;;;;;;;;21.35;38.53;101781.72;6402877;23;20006;-75
2022/05/03 12:15:57;;;;;;;4.05;2.88;;;;;;;20.71;37.47;101775.75;6376026;23;19915;-75
2022/05/03 12:18:31;;;;;;;4.50;2.92;;;;;;;20.63;37.56;101773.97;6403692;23;20009;-74
2022/05/03 12:21:21;;;;;;;5.75;2.95;;;;;;;20.85;38.46;101767.03;6403059;23;20060;-75
2022/05/03 12:23:58;;;;;;;6.43;5.13;;;;;;;20.58;39.92;101771.00;6403081;23;20009;-74
2022/05/03 12:26:38;;;;;;;6.28;5.05;;;;;;;20.47;39.88;101776.69;6402074;23;20080;-75
2022/05/03 12:29:09;;;;;;;5.60;5.07;;;;;;;20.45;40.90;101763.50;6375243;23;20010;-74
2022/05/03 12:31:43;;;;;;;5.90;4.67;;;;;;;20.39;40.54;101764.22;6402482;23;20109;-77
2022/05/03 12:34:22;;;;;;;6.45;5.25;;;;;;;20.41;41.34;101765.69;6401112;23;20021;-74
2022/05/03 12:37:02;;;;;;;6.60;5.50;;;;;;;20.33;41.48;101765.72;6402792;23;20357;-74
2022/05/03 12:39:35;;;;;;;8.35;5.22;;;;;;;20.11;42.71;101761.97;6403761;23;20076;-75
2022/05/03 12:42:12;;;;;;;8.50;6.03;;;;;;;20.26;41.85;101750.63;6403641;23;20016;-74
2022/05/03 12:44:52;;;;;;;7.70;6.85;;;;;;;20.38;42.01;101750.09;6401633;23;20068;-74